sensor_id;sensor_type;location;lat;lon;timestamp;P1;durP1;ratioP1;P2;durP2;ratioP2
17451;SDS011;8843;48.838;9.324;2023-03-01T00:01:00;11.50;;;8.77;;
17451;SDS011;8843;48.838;9.324;2023-03-01T00:03:28;11.47;;;8.03;;
17451;SDS011;8843;48.838;9.324;2023-03-01T00:05:55;10.67;;;8.00;;
17451;SDS011;8843;48.838;9.324;2023-03-01T00:08:23;9.60;;;7.13;;
17451;SDS011;8843;48.838;9.324;2023-03-01T00:10:59;10.80;;;8.23;;
17451;SDS011;8843;48.838;9.324;2023-03-01T00:13:26;12.40;;;8.53;;
17451;SDS011;8843;48.838;9.324;2023-03-01T00:15:53;11.60;;;7.87;;
17451;SDS011;8843;48.838;9.324;2023-03-01T00:18:20;12.43;;;9.10;;
17451;SDS011;8843;48.838;9.324;2023-03-01T00:20:49;14.83;;;9.90;;
17451;SDS011;8843;48.838;9.324;2023-03-01T00:23:17;12.20;;;7.93;;
17451;SDS011;8843;48.838;9.324;2023-03-01T00:25:45;13.87;;;8.17;;
17451;SDS011;8843;48.838;9.324;2023-03-01T00:28:12;13.47;;;9.50;;
17451;SDS011;8843;48.838;9.324;2023-03-01T00:30:39;11.77;;;8.57;;
17451;SDS011;8843;48.838;9.324;2023-03-01T00:33:05;11.03;;;8.40;;
17451;SDS011;8843;48.838;9.324;2023-03-01T00:35:33;11.13;;;8.53;;
17451;SDS011;8843;48.838;9.324;2023-03-01T00:38:00;10.63;;;8.07;;
17451;SDS011;8843;48.838;9.324;2023-03-01T00:40:28;13.70;;;8.90;;
17451;SDS011;8843;48.838;9.324;2023-03-01T00:42:58;13.00;;;9.87;;
17451;SDS011;8843;48.838;9.324;2023-03-01T00:45:26;10.77;;;8.33;;
17451;SDS011;8843;48.838;9.324;2023-03-01T00:47:53;11.07;;;8.33;;
17451;SDS011;8843;48.838;9.324;2023-03-01T00:50:20;14.60;;;9.63;;
17451;SDS011;8843;48.838;9.324;2023-03-01T00:52:47;12.27;;;8.37;;
17451;SDS011;8843;48.838;9.324;2023-03-01T00:55:18;14.13;;;9.27;;
17451;SDS011;8843;48.838;9.324;2023-03-01T00:57:44;12.67;;;8.73;;
17451;SDS011;8843;48.838;9.324;2023-03-01T01:00:13;14.17;;;8.80;;
17451;SDS011;8843;48.838;9.324;2023-03-01T01:02:40;12.63;;;8.27;;
17451;SDS011;8843;48.838;9.324;2023-03-01T01:05:07;12.17;;;8.50;;
17451;SDS011;8843;48.838;9.324;2023-03-01T01:07:35;13.20;;;8.70;;
17451;SDS011;8843;48.838;9.324;2023-03-01T01:10:02;14.10;;;10.33;;
17451;SDS011;8843;48.838;9.324;2023-03-01T01:12:29;13.90;;;9.57;;
17451;SDS011;8843;48.838;9.324;2023-03-01T01:14:57;13.37;;;10.70;;
17451;SDS011;8843;48.838;9.324;2023-03-01T01:17:25;13.00;;;8.47;;
17451;SDS011;8843;48.838;9.324;2023-03-01T01:19:52;16.33;;;9.87;;
17451;SDS011;8843;48.838;9.324;2023-03-01T01:22:19;13.27;;;9.30;;
17451;SDS011;8843;48.838;9.324;2023-03-01T01:24:45;13.60;;;8.97;;
17451;SDS011;8843;48.838;9.324;2023-03-01T01:27:12;12.37;;;8.90;;
17451;SDS011;8843;48.838;9.324;2023-03-01T01:29:39;12.40;;;8.27;;
17451;SDS011;8843;48.838;9.324;2023-03-01T01:32:07;14.17;;;9.87;;
17451;SDS011;8843;48.838;9.324;2023-03-01T01:34:35;13.43;;;8.93;;
17451;SDS011;8843;48.838;9.324;2023-03-01T01:37:02;13.70;;;9.70;;
17451;SDS011;8843;48.838;9.324;2023-03-01T01:39:32;11.17;;;8.23;;
17451;SDS011;8843;48.838;9.324;2023-03-01T01:41:59;13.63;;;10.00;;
17451;SDS011;8843;48.838;9.324;2023-03-01T01:44:27;11.17;;;8.03;;
17451;SDS011;8843;48.838;9.324;2023-03-01T01:46:55;11.70;;;8.50;;
17451;SDS011;8843;48.838;9.324;2023-03-01T01:49:27;16.27;;;10.40;;
17451;SDS011;8843;48.838;9.324;2023-03-01T01:52:10;13.90;;;9.47;;
17451;SDS011;8843;48.838;9.324;2023-03-01T01:54:41;13.03;;;9.60;;
17451;SDS011;8843;48.838;9.324;2023-03-01T01:57:14;14.17;;;9.57;;
17451;SDS011;8843;48.838;9.324;2023-03-01T01:59:45;13.30;;;9.43;;
17451;SDS011;8843;48.838;9.324;2023-03-01T02:02:15;15.70;;;10.27;;
17451;SDS011;8843;48.838;9.324;2023-03-01T02:04:43;13.10;;;9.23;;
17451;SDS011;8843;48.838;9.324;2023-03-01T02:07:13;14.57;;;9.10;;
17451;SDS011;8843;48.838;9.324;2023-03-01T02:09:42;13.20;;;9.33;;
17451;SDS011;8843;48.838;9.324;2023-03-01T02:12:13;12.27;;;9.07;;
17451;SDS011;8843;48.838;9.324;2023-03-01T02:14:42;15.03;;;9.83;;
17451;SDS011;8843;48.838;9.324;2023-03-01T02:17:09;16.73;;;10.10;;
17451;SDS011;8843;48.838;9.324;2023-03-01T02:19:43;15.60;;;10.03;;
17451;SDS011;8843;48.838;9.324;2023-03-01T02:22:20;14.63;;;9.83;;
17451;SDS011;8843;48.838;9.324;2023-03-01T02:24:53;17.53;;;9.73;;
17451;SDS011;8843;48.838;9.324;2023-03-01T02:27:35;12.80;;;10.23;;
17451;SDS011;8843;48.838;9.324;2023-03-01T02:30:08;15.43;;;9.60;;
17451;SDS011;8843;48.838;9.324;2023-03-01T02:32:37;13.53;;;8.87;;
17451;SDS011;8843;48.838;9.324;2023-03-01T02:35:06;13.93;;;9.50;;
17451;SDS011;8843;48.838;9.324;2023-03-01T02:37:36;13.70;;;8.97;;
17451;SDS011;8843;48.838;9.324;2023-03-01T02:40:05;14.40;;;10.10;;
17451;SDS011;8843;48.838;9.324;2023-03-01T02:42:37;14.27;;;10.10;;
17451;SDS011;8843;48.838;9.324;2023-03-01T02:45:14;16.10;;;10.37;;
17451;SDS011;8843;48.838;9.324;2023-03-01T02:47:41;14.60;;;10.20;;
17451;SDS011;8843;48.838;9.324;2023-03-01T02:50:18;13.40;;;9.53;;
17451;SDS011;8843;48.838;9.324;2023-03-01T02:53:01;13.80;;;9.73;;
17451;SDS011;8843;48.838;9.324;2023-03-01T02:55:34;13.50;;;10.27;;
17451;SDS011;8843;48.838;9.324;2023-03-01T02:58:01;15.80;;;10.47;;
17451;SDS011;8843;48.838;9.324;2023-03-01T03:00:30;14.07;;;10.30;;
17451;SDS011;8843;48.838;9.324;2023-03-01T03:03:04;15.57;;;10.77;;
17451;SDS011;8843;48.838;9.324;2023-03-01T03:05:32;13.70;;;10.13;;
17451;SDS011;8843;48.838;9.324;2023-03-01T03:08:00;12.70;;;8.77;;
17451;SDS011;8843;48.838;9.324;2023-03-01T03:10:29;14.67;;;10.40;;
17451;SDS011;8843;48.838;9.324;2023-03-01T03:12:58;14.40;;;10.47;;
17451;SDS011;8843;48.838;9.324;2023-03-01T03:15:26;14.67;;;11.17;;
17451;SDS011;8843;48.838;9.324;2023-03-01T03:17:55;12.90;;;9.37;;
17451;SDS011;8843;48.838;9.324;2023-03-01T03:20:23;14.03;;;9.67;;
17451;SDS011;8843;48.838;9.324;2023-03-01T03:22:52;16.07;;;10.10;;
17451;SDS011;8843;48.838;9.324;2023-03-01T03:25:21;13.90;;;9.50;;
17451;SDS011;8843;48.838;9.324;2023-03-01T03:27:49;14.07;;;9.57;;
17451;SDS011;8843;48.838;9.324;2023-03-01T03:30:21;14.80;;;10.93;;
17451;SDS011;8843;48.838;9.324;2023-03-01T03:32:49;14.90;;;10.37;;
17451;SDS011;8843;48.838;9.324;2023-03-01T03:35:19;15.20;;;11.03;;
17451;SDS011;8843;48.838;9.324;2023-03-01T03:37:49;15.87;;;11.17;;
17451;SDS011;8843;48.838;9.324;2023-03-01T03:40:31;16.50;;;10.77;;
17451;SDS011;8843;48.838;9.324;2023-03-01T03:42:59;13.83;;;9.57;;
17451;SDS011;8843;48.838;9.324;2023-03-01T03:45:26;16.83;;;11.13;;
17451;SDS011;8843;48.838;9.324;2023-03-01T03:47:53;17.37;;;11.47;;
17451;SDS011;8843;48.838;9.324;2023-03-01T03:50:21;15.07;;;10.87;;
17451;SDS011;8843;48.838;9.324;2023-03-01T03:52:48;14.60;;;10.37;;
17451;SDS011;8843;48.838;9.324;2023-03-01T03:55:15;16.67;;;11.27;;
17451;SDS011;8843;48.838;9.324;2023-03-01T03:57:45;15.87;;;11.80;;
17451;SDS011;8843;48.838;9.324;2023-03-01T04:00:16;18.77;;;11.57;;
17451;SDS011;8843;48.838;9.324;2023-03-01T04:02:45;18.20;;;11.93;;
17451;SDS011;8843;48.838;9.324;2023-03-01T04:05:14;15.93;;;11.17;;
17451;SDS011;8843;48.838;9.324;2023-03-01T04:07:44;16.37;;;9.87;;
17451;SDS011;8843;48.838;9.324;2023-03-01T04:10:13;15.50;;;11.57;;
17451;SDS011;8843;48.838;9.324;2023-03-01T04:12:41;16.00;;;10.97;;
17451;SDS011;8843;48.838;9.324;2023-03-01T04:15:09;15.20;;;11.40;;
17451;SDS011;8843;48.838;9.324;2023-03-01T04:17:38;13.43;;;9.80;;
17451;SDS011;8843;48.838;9.324;2023-03-01T04:20:07;16.03;;;10.97;;
17451;SDS011;8843;48.838;9.324;2023-03-01T04:22:36;14.13;;;9.30;;
17451;SDS011;8843;48.838;9.324;2023-03-01T04:25:04;14.97;;;10.43;;
17451;SDS011;8843;48.838;9.324;2023-03-01T04:27:33;13.77;;;11.30;;
17451;SDS011;8843;48.838;9.324;2023-03-01T04:30:00;15.47;;;9.70;;
17451;SDS011;8843;48.838;9.324;2023-03-01T04:32:27;14.77;;;11.50;;
17451;SDS011;8843;48.838;9.324;2023-03-01T04:34:54;16.17;;;10.67;;
17451;SDS011;8843;48.838;9.324;2023-03-01T04:37:21;14.07;;;11.10;;
17451;SDS011;8843;48.838;9.324;2023-03-01T04:39:49;17.30;;;10.97;;
17451;SDS011;8843;48.838;9.324;2023-03-01T04:42:17;18.37;;;11.03;;
17451;SDS011;8843;48.838;9.324;2023-03-01T04:44:44;15.10;;;8.77;;
17451;SDS011;8843;48.838;9.324;2023-03-01T04:47:11;19.03;;;11.90;;
17451;SDS011;8843;48.838;9.324;2023-03-01T04:49:38;13.43;;;9.73;;
17451;SDS011;8843;48.838;9.324;2023-03-01T04:52:05;17.27;;;11.03;;
17451;SDS011;8843;48.838;9.324;2023-03-01T04:54:33;16.63;;;10.87;;
17451;SDS011;8843;48.838;9.324;2023-03-01T04:57:00;16.70;;;10.83;;
17451;SDS011;8843;48.838;9.324;2023-03-01T04:59:29;16.60;;;11.30;;
17451;SDS011;8843;48.838;9.324;2023-03-01T05:01:56;14.00;;;10.13;;
17451;SDS011;8843;48.838;9.324;2023-03-01T05:04:25;15.23;;;10.53;;
17451;SDS011;8843;48.838;9.324;2023-03-01T05:06:52;15.37;;;10.90;;
17451;SDS011;8843;48.838;9.324;2023-03-01T05:09:19;16.60;;;10.50;;
17451;SDS011;8843;48.838;9.324;2023-03-01T05:11:46;16.43;;;10.77;;
17451;SDS011;8843;48.838;9.324;2023-03-01T05:14:13;17.77;;;11.00;;
17451;SDS011;8843;48.838;9.324;2023-03-01T05:16:41;14.57;;;10.47;;
17451;SDS011;8843;48.838;9.324;2023-03-01T05:19:08;15.40;;;10.07;;
17451;SDS011;8843;48.838;9.324;2023-03-01T05:21:40;16.53;;;10.27;;
17451;SDS011;8843;48.838;9.324;2023-03-01T05:24:21;16.67;;;10.97;;
17451;SDS011;8843;48.838;9.324;2023-03-01T05:26:48;17.97;;;11.23;;
17451;SDS011;8843;48.838;9.324;2023-03-01T05:29:17;15.00;;;10.37;;
17451;SDS011;8843;48.838;9.324;2023-03-01T05:31:51;15.97;;;10.40;;
17451;SDS011;8843;48.838;9.324;2023-03-01T05:34:19;17.63;;;11.93;;
17451;SDS011;8843;48.838;9.324;2023-03-01T05:36:50;14.90;;;10.17;;
17451;SDS011;8843;48.838;9.324;2023-03-01T05:39:18;14.03;;;9.97;;
17451;SDS011;8843;48.838;9.324;2023-03-01T05:41:47;18.70;;;12.67;;
17451;SDS011;8843;48.838;9.324;2023-03-01T05:44:14;17.23;;;11.33;;
17451;SDS011;8843;48.838;9.324;2023-03-01T05:46:42;16.63;;;10.57;;
17451;SDS011;8843;48.838;9.324;2023-03-01T05:49:11;14.83;;;11.33;;
17451;SDS011;8843;48.838;9.324;2023-03-01T05:51:38;18.30;;;12.23;;
17451;SDS011;8843;48.838;9.324;2023-03-01T05:54:05;14.90;;;10.53;;
17451;SDS011;8843;48.838;9.324;2023-03-01T05:56:32;19.30;;;11.40;;
17451;SDS011;8843;48.838;9.324;2023-03-01T05:59:00;15.20;;;10.73;;
17451;SDS011;8843;48.838;9.324;2023-03-01T06:01:27;18.27;;;11.47;;
17451;SDS011;8843;48.838;9.324;2023-03-01T06:03:54;16.37;;;10.47;;
17451;SDS011;8843;48.838;9.324;2023-03-01T06:06:23;15.53;;;10.53;;
17451;SDS011;8843;48.838;9.324;2023-03-01T06:08:50;16.40;;;10.33;;
17451;SDS011;8843;48.838;9.324;2023-03-01T06:11:17;16.67;;;11.10;;
17451;SDS011;8843;48.838;9.324;2023-03-01T06:13:44;14.70;;;10.70;;
17451;SDS011;8843;48.838;9.324;2023-03-01T06:16:11;16.83;;;11.03;;
17451;SDS011;8843;48.838;9.324;2023-03-01T06:18:39;16.40;;;11.50;;
17451;SDS011;8843;48.838;9.324;2023-03-01T06:21:06;19.60;;;12.80;;
17451;SDS011;8843;48.838;9.324;2023-03-01T06:23:35;14.60;;;11.53;;
17451;SDS011;8843;48.838;9.324;2023-03-01T06:26:04;16.87;;;11.40;;
17451;SDS011;8843;48.838;9.324;2023-03-01T06:28:31;18.40;;;12.37;;
17451;SDS011;8843;48.838;9.324;2023-03-01T06:30:59;22.97;;;11.10;;
17451;SDS011;8843;48.838;9.324;2023-03-01T06:33:25;18.10;;;11.53;;
17451;SDS011;8843;48.838;9.324;2023-03-01T06:35:53;21.60;;;11.50;;
17451;SDS011;8843;48.838;9.324;2023-03-01T06:38:21;22.53;;;13.23;;
17451;SDS011;8843;48.838;9.324;2023-03-01T06:40:52;17.10;;;11.87;;
17451;SDS011;8843;48.838;9.324;2023-03-01T06:43:21;19.27;;;12.83;;
17451;SDS011;8843;48.838;9.324;2023-03-01T06:45:48;18.90;;;11.87;;
17451;SDS011;8843;48.838;9.324;2023-03-01T06:48:15;18.83;;;12.37;;
17451;SDS011;8843;48.838;9.324;2023-03-01T06:50:42;18.77;;;13.33;;
17451;SDS011;8843;48.838;9.324;2023-03-01T06:53:09;17.23;;;12.20;;
17451;SDS011;8843;48.838;9.324;2023-03-01T06:55:36;19.80;;;12.20;;
17451;SDS011;8843;48.838;9.324;2023-03-01T06:58:04;18.40;;;11.53;;
17451;SDS011;8843;48.838;9.324;2023-03-01T07:00:31;19.20;;;12.87;;
17451;SDS011;8843;48.838;9.324;2023-03-01T07:02:59;18.93;;;13.07;;
17451;SDS011;8843;48.838;9.324;2023-03-01T07:05:27;16.73;;;12.27;;
17451;SDS011;8843;48.838;9.324;2023-03-01T07:07:55;19.57;;;13.27;;
17451;SDS011;8843;48.838;9.324;2023-03-01T07:10:22;18.53;;;11.80;;
17451;SDS011;8843;48.838;9.324;2023-03-01T07:12:49;18.17;;;11.97;;
17451;SDS011;8843;48.838;9.324;2023-03-01T07:15:18;16.50;;;11.60;;
17451;SDS011;8843;48.838;9.324;2023-03-01T07:17:44;20.70;;;13.70;;
17451;SDS011;8843;48.838;9.324;2023-03-01T07:20:13;19.60;;;12.97;;
17451;SDS011;8843;48.838;9.324;2023-03-01T07:22:40;16.10;;;11.40;;
17451;SDS011;8843;48.838;9.324;2023-03-01T07:25:08;18.10;;;12.83;;
17451;SDS011;8843;48.838;9.324;2023-03-01T07:27:35;19.20;;;12.93;;
17451;SDS011;8843;48.838;9.324;2023-03-01T07:30:02;20.80;;;13.27;;
17451;SDS011;8843;48.838;9.324;2023-03-01T07:32:31;17.50;;;12.00;;
17451;SDS011;8843;48.838;9.324;2023-03-01T07:34:58;16.90;;;11.43;;
17451;SDS011;8843;48.838;9.324;2023-03-01T07:37:25;20.93;;;13.13;;
17451;SDS011;8843;48.838;9.324;2023-03-01T07:39:52;20.23;;;13.03;;
17451;SDS011;8843;48.838;9.324;2023-03-01T07:42:19;20.47;;;12.57;;
17451;SDS011;8843;48.838;9.324;2023-03-01T07:44:46;20.87;;;13.93;;
17451;SDS011;8843;48.838;9.324;2023-03-01T07:47:13;22.07;;;13.53;;
17451;SDS011;8843;48.838;9.324;2023-03-01T07:49:41;18.23;;;12.07;;
17451;SDS011;8843;48.838;9.324;2023-03-01T07:52:09;18.47;;;13.33;;
17451;SDS011;8843;48.838;9.324;2023-03-01T07:54:36;22.53;;;12.87;;
17451;SDS011;8843;48.838;9.324;2023-03-01T07:57:03;19.30;;;13.13;;
17451;SDS011;8843;48.838;9.324;2023-03-01T07:59:30;18.60;;;12.33;;
17451;SDS011;8843;48.838;9.324;2023-03-01T08:01:57;20.30;;;12.23;;
17451;SDS011;8843;48.838;9.324;2023-03-01T08:04:24;19.77;;;13.00;;
17451;SDS011;8843;48.838;9.324;2023-03-01T08:06:53;17.13;;;12.07;;
17451;SDS011;8843;48.838;9.324;2023-03-01T08:09:20;20.60;;;13.00;;
17451;SDS011;8843;48.838;9.324;2023-03-01T08:11:48;21.07;;;12.47;;
17451;SDS011;8843;48.838;9.324;2023-03-01T08:14:14;22.40;;;13.10;;
17451;SDS011;8843;48.838;9.324;2023-03-01T08:16:41;21.23;;;13.17;;
17451;SDS011;8843;48.838;9.324;2023-03-01T08:19:09;19.93;;;12.90;;
17451;SDS011;8843;48.838;9.324;2023-03-01T08:21:37;19.43;;;13.03;;
17451;SDS011;8843;48.838;9.324;2023-03-01T08:24:06;20.33;;;12.50;;
17451;SDS011;8843;48.838;9.324;2023-03-01T08:26:35;20.00;;;12.40;;
17451;SDS011;8843;48.838;9.324;2023-03-01T08:29:02;17.63;;;12.07;;
17451;SDS011;8843;48.838;9.324;2023-03-01T08:31:30;21.57;;;12.63;;
17451;SDS011;8843;48.838;9.324;2023-03-01T08:34:00;20.47;;;13.57;;
17451;SDS011;8843;48.838;9.324;2023-03-01T08:36:29;19.83;;;13.03;;
17451;SDS011;8843;48.838;9.324;2023-03-01T08:38:57;18.40;;;12.83;;
17451;SDS011;8843;48.838;9.324;2023-03-01T08:41:25;19.63;;;11.83;;
17451;SDS011;8843;48.838;9.324;2023-03-01T08:43:53;17.90;;;12.07;;
17451;SDS011;8843;48.838;9.324;2023-03-01T08:46:23;20.93;;;13.30;;
17451;SDS011;8843;48.838;9.324;2023-03-01T08:48:51;19.03;;;12.73;;
17451;SDS011;8843;48.838;9.324;2023-03-01T08:51:18;22.07;;;14.00;;
17451;SDS011;8843;48.838;9.324;2023-03-01T08:53:46;20.67;;;13.53;;
17451;SDS011;8843;48.838;9.324;2023-03-01T08:56:14;20.63;;;13.37;;
17451;SDS011;8843;48.838;9.324;2023-03-01T08:58:44;19.27;;;13.47;;
17451;SDS011;8843;48.838;9.324;2023-03-01T09:01:13;21.53;;;13.43;;
17451;SDS011;8843;48.838;9.324;2023-03-01T09:03:41;19.20;;;12.47;;
17451;SDS011;8843;48.838;9.324;2023-03-01T09:06:09;20.33;;;12.60;;
17451;SDS011;8843;48.838;9.324;2023-03-01T09:08:37;21.20;;;12.10;;
17451;SDS011;8843;48.838;9.324;2023-03-01T09:11:06;18.83;;;12.67;;
17451;SDS011;8843;48.838;9.324;2023-03-01T09:13:34;18.60;;;12.63;;
17451;SDS011;8843;48.838;9.324;2023-03-01T09:16:03;19.63;;;12.90;;
17451;SDS011;8843;48.838;9.324;2023-03-01T09:18:31;21.93;;;13.43;;
17451;SDS011;8843;48.838;9.324;2023-03-01T09:21:02;17.63;;;12.23;;
17451;SDS011;8843;48.838;9.324;2023-03-01T09:23:32;19.93;;;12.37;;
17451;SDS011;8843;48.838;9.324;2023-03-01T09:26:01;21.83;;;13.80;;
17451;SDS011;8843;48.838;9.324;2023-03-01T09:28:28;21.97;;;12.87;;
17451;SDS011;8843;48.838;9.324;2023-03-01T09:30:57;20.37;;;13.47;;
17451;SDS011;8843;48.838;9.324;2023-03-01T09:33:26;19.47;;;12.47;;
17451;SDS011;8843;48.838;9.324;2023-03-01T09:35:55;21.67;;;13.97;;
17451;SDS011;8843;48.838;9.324;2023-03-01T09:38:23;18.93;;;12.77;;
17451;SDS011;8843;48.838;9.324;2023-03-01T09:40:50;21.23;;;13.03;;
17451;SDS011;8843;48.838;9.324;2023-03-01T09:43:19;18.50;;;13.20;;
17451;SDS011;8843;48.838;9.324;2023-03-01T09:45:50;22.13;;;13.27;;
17451;SDS011;8843;48.838;9.324;2023-03-01T09:48:21;28.90;;;12.90;;
17451;SDS011;8843;48.838;9.324;2023-03-01T09:50:52;18.63;;;12.80;;
17451;SDS011;8843;48.838;9.324;2023-03-01T09:53:20;19.47;;;12.07;;
17451;SDS011;8843;48.838;9.324;2023-03-01T09:55:50;24.93;;;13.73;;
17451;SDS011;8843;48.838;9.324;2023-03-01T09:58:27;17.53;;;12.37;;
17451;SDS011;8843;48.838;9.324;2023-03-01T10:01:02;18.23;;;12.43;;
17451;SDS011;8843;48.838;9.324;2023-03-01T10:03:42;18.10;;;12.40;;
17451;SDS011;8843;48.838;9.324;2023-03-01T10:06:14;18.43;;;11.60;;
17451;SDS011;8843;48.838;9.324;2023-03-01T10:08:46;18.10;;;13.20;;
17451;SDS011;8843;48.838;9.324;2023-03-01T10:11:20;21.37;;;12.90;;
17451;SDS011;8843;48.838;9.324;2023-03-01T10:13:51;19.13;;;12.20;;
17451;SDS011;8843;48.838;9.324;2023-03-01T10:16:26;19.70;;;12.43;;
17451;SDS011;8843;48.838;9.324;2023-03-01T10:18:59;17.30;;;11.93;;
17451;SDS011;8843;48.838;9.324;2023-03-01T10:21:30;22.23;;;13.17;;
17451;SDS011;8843;48.838;9.324;2023-03-01T10:24:08;19.57;;;13.33;;
17451;SDS011;8843;48.838;9.324;2023-03-01T10:26:44;25.10;;;13.87;;
17451;SDS011;8843;48.838;9.324;2023-03-01T10:29:17;20.50;;;13.77;;
17451;SDS011;8843;48.838;9.324;2023-03-01T10:31:50;20.30;;;13.13;;
17451;SDS011;8843;48.838;9.324;2023-03-01T10:34:19;20.43;;;12.53;;
17451;SDS011;8843;48.838;9.324;2023-03-01T10:36:50;21.20;;;12.77;;
17451;SDS011;8843;48.838;9.324;2023-03-01T10:39:19;17.83;;;12.47;;
17451;SDS011;8843;48.838;9.324;2023-03-01T10:41:54;21.40;;;12.70;;
17451;SDS011;8843;48.838;9.324;2023-03-01T10:44:42;21.57;;;13.13;;
17451;SDS011;8843;48.838;9.324;2023-03-01T10:47:13;18.73;;;12.87;;
17451;SDS011;8843;48.838;9.324;2023-03-01T10:49:56;19.37;;;13.70;;
17451;SDS011;8843;48.838;9.324;2023-03-01T10:52:28;18.87;;;11.77;;
17451;SDS011;8843;48.838;9.324;2023-03-01T10:55:01;19.50;;;12.90;;
17451;SDS011;8843;48.838;9.324;2023-03-01T10:57:31;17.63;;;12.37;;
17451;SDS011;8843;48.838;9.324;2023-03-01T11:02:50;18.90;;;11.43;;
17451;SDS011;8843;48.838;9.324;2023-03-01T11:05:29;17.83;;;11.00;;
17451;SDS011;8843;48.838;9.324;2023-03-01T11:08:00;17.67;;;12.60;;
17451;SDS011;8843;48.838;9.324;2023-03-01T11:10:29;19.10;;;11.53;;
17451;SDS011;8843;48.838;9.324;2023-03-01T11:13:07;17.03;;;11.73;;
17451;SDS011;8843;48.838;9.324;2023-03-01T11:15:40;16.73;;;11.27;;
17451;SDS011;8843;48.838;9.324;2023-03-01T11:18:17;16.60;;;11.37;;
17451;SDS011;8843;48.838;9.324;2023-03-01T11:20:46;18.60;;;12.10;;
17451;SDS011;8843;48.838;9.324;2023-03-01T11:23:15;14.53;;;10.70;;
17451;SDS011;8843;48.838;9.324;2023-03-01T11:25:43;18.50;;;11.40;;
17451;SDS011;8843;48.838;9.324;2023-03-01T11:28:14;15.57;;;10.77;;
17451;SDS011;8843;48.838;9.324;2023-03-01T11:30:45;18.93;;;11.10;;
17451;SDS011;8843;48.838;9.324;2023-03-01T11:33:19;17.10;;;11.30;;
17451;SDS011;8843;48.838;9.324;2023-03-01T11:36:00;15.07;;;10.83;;
17451;SDS011;8843;48.838;9.324;2023-03-01T11:38:30;13.17;;;9.77;;
17451;SDS011;8843;48.838;9.324;2023-03-01T11:41:01;18.00;;;11.80;;
17451;SDS011;8843;48.838;9.324;2023-03-01T11:43:33;16.77;;;11.43;;
17451;SDS011;8843;48.838;9.324;2023-03-01T11:46:13;15.00;;;10.77;;
17451;SDS011;8843;48.838;9.324;2023-03-01T11:49:00;16.33;;;11.23;;
17451;SDS011;8843;48.838;9.324;2023-03-01T11:51:40;14.47;;;9.90;;
17451;SDS011;8843;48.838;9.324;2023-03-01T11:54:25;15.90;;;10.57;;
17451;SDS011;8843;48.838;9.324;2023-03-01T11:57:04;14.73;;;10.33;;
17451;SDS011;8843;48.838;9.324;2023-03-01T12:00:04;15.43;;;11.10;;
17451;SDS011;8843;48.838;9.324;2023-03-01T12:05:49;15.27;;;10.27;;
17451;SDS011;8843;48.838;9.324;2023-03-01T12:08:29;15.30;;;10.73;;
17451;SDS011;8843;48.838;9.324;2023-03-01T12:11:06;15.53;;;11.13;;
17451;SDS011;8843;48.838;9.324;2023-03-01T12:14:09;14.67;;;10.33;;
17451;SDS011;8843;48.838;9.324;2023-03-01T12:17:04;14.30;;;9.70;;
17451;SDS011;8843;48.838;9.324;2023-03-01T12:19:52;16.58;;;11.85;;
17451;SDS011;8843;48.838;9.324;2023-03-01T12:22:35;14.87;;;10.30;;
17451;SDS011;8843;48.838;9.324;2023-03-01T12:28:16;16.30;;;10.47;;
17451;SDS011;8843;48.838;9.324;2023-03-01T12:33:54;14.77;;;9.77;;
17451;SDS011;8843;48.838;9.324;2023-03-01T12:36:33;11.50;;;9.10;;
17451;SDS011;8843;48.838;9.324;2023-03-01T12:39:30;17.43;;;10.47;;
17451;SDS011;8843;48.838;9.324;2023-03-01T12:42:07;15.07;;;10.50;;
17451;SDS011;8843;48.838;9.324;2023-03-01T12:44:55;14.27;;;10.93;;
17451;SDS011;8843;48.838;9.324;2023-03-01T12:47:37;15.23;;;10.30;;
17451;SDS011;8843;48.838;9.324;2023-03-01T12:50:21;13.23;;;10.20;;
17451;SDS011;8843;48.838;9.324;2023-03-01T12:52:51;14.10;;;9.43;;
17451;SDS011;8843;48.838;9.324;2023-03-01T12:55:24;12.23;;;9.53;;
17451;SDS011;8843;48.838;9.324;2023-03-01T12:57:57;14.50;;;10.13;;
17451;SDS011;8843;48.838;9.324;2023-03-01T13:00:38;13.87;;;9.50;;
17451;SDS011;8843;48.838;9.324;2023-03-01T13:03:14;13.17;;;9.30;;
17451;SDS011;8843;48.838;9.324;2023-03-01T13:05:56;14.30;;;9.67;;
17451;SDS011;8843;48.838;9.324;2023-03-01T13:08:35;12.37;;;9.07;;
17451;SDS011;8843;48.838;9.324;2023-03-01T13:11:12;15.90;;;11.27;;
17451;SDS011;8843;48.838;9.324;2023-03-01T13:13:43;15.13;;;10.97;;
17451;SDS011;8843;48.838;9.324;2023-03-01T13:16:38;14.93;;;10.73;;
17451;SDS011;8843;48.838;9.324;2023-03-01T13:19:08;17.37;;;11.10;;
17451;SDS011;8843;48.838;9.324;2023-03-01T13:21:40;15.27;;;10.87;;
17451;SDS011;8843;48.838;9.324;2023-03-01T13:27:09;18.80;;;11.67;;
17451;SDS011;8843;48.838;9.324;2023-03-01T13:29:54;16.13;;;10.37;;
17451;SDS011;8843;48.838;9.324;2023-03-01T13:32:26;17.27;;;11.27;;
17451;SDS011;8843;48.838;9.324;2023-03-01T13:34:58;16.50;;;10.97;;
17451;SDS011;8843;48.838;9.324;2023-03-01T13:37:30;15.33;;;10.67;;
17451;SDS011;8843;48.838;9.324;2023-03-01T13:43:27;18.63;;;11.53;;
17451;SDS011;8843;48.838;9.324;2023-03-01T13:45:56;16.93;;;11.80;;
17451;SDS011;8843;48.838;9.324;2023-03-01T13:48:26;18.60;;;12.63;;
17451;SDS011;8843;48.838;9.324;2023-03-01T13:50:56;23.17;;;13.90;;
17451;SDS011;8843;48.838;9.324;2023-03-01T13:53:26;17.53;;;12.17;;
17451;SDS011;8843;48.838;9.324;2023-03-01T13:55:57;17.83;;;11.83;;
17451;SDS011;8843;48.838;9.324;2023-03-01T13:58:27;19.77;;;11.73;;
17451;SDS011;8843;48.838;9.324;2023-03-01T14:00:56;18.83;;;12.30;;
17451;SDS011;8843;48.838;9.324;2023-03-01T14:03:26;17.23;;;12.70;;
17451;SDS011;8843;48.838;9.324;2023-03-01T14:06:00;18.30;;;12.87;;
17451;SDS011;8843;48.838;9.324;2023-03-01T14:08:35;19.40;;;12.13;;
17451;SDS011;8843;48.838;9.324;2023-03-01T14:11:18;21.63;;;12.63;;
17451;SDS011;8843;48.838;9.324;2023-03-01T14:14:07;18.47;;;11.83;;
17451;SDS011;8843;48.838;9.324;2023-03-01T14:16:53;16.67;;;11.07;;
17451;SDS011;8843;48.838;9.324;2023-03-01T14:19:31;17.60;;;10.57;;
17451;SDS011;8843;48.838;9.324;2023-03-01T14:21:59;16.80;;;11.60;;
17451;SDS011;8843;48.838;9.324;2023-03-01T14:24:29;16.83;;;11.67;;
17451;SDS011;8843;48.838;9.324;2023-03-01T14:27:00;17.03;;;11.33;;
17451;SDS011;8843;48.838;9.324;2023-03-01T14:29:28;19.17;;;13.20;;
17451;SDS011;8843;48.838;9.324;2023-03-01T14:32:08;18.37;;;11.77;;
17451;SDS011;8843;48.838;9.324;2023-03-01T14:34:38;20.03;;;13.57;;
17451;SDS011;8843;48.838;9.324;2023-03-01T14:37:10;18.10;;;12.23;;
17451;SDS011;8843;48.838;9.324;2023-03-01T14:39:43;16.40;;;12.10;;
17451;SDS011;8843;48.838;9.324;2023-03-01T14:42:11;21.13;;;13.77;;
17451;SDS011;8843;48.838;9.324;2023-03-01T14:44:40;21.37;;;13.13;;
17451;SDS011;8843;48.838;9.324;2023-03-01T14:47:10;20.03;;;13.10;;
17451;SDS011;8843;48.838;9.324;2023-03-01T14:49:42;20.77;;;11.73;;
17451;SDS011;8843;48.838;9.324;2023-03-01T14:52:17;17.57;;;11.50;;
17451;SDS011;8843;48.838;9.324;2023-03-01T14:54:46;19.60;;;12.33;;
17451;SDS011;8843;48.838;9.324;2023-03-01T14:57:15;17.43;;;12.07;;
17451;SDS011;8843;48.838;9.324;2023-03-01T14:59:43;18.27;;;11.90;;
17451;SDS011;8843;48.838;9.324;2023-03-01T15:02:11;18.83;;;12.53;;
17451;SDS011;8843;48.838;9.324;2023-03-01T15:04:43;17.80;;;11.80;;
17451;SDS011;8843;48.838;9.324;2023-03-01T15:07:12;17.97;;;12.20;;
17451;SDS011;8843;48.838;9.324;2023-03-01T15:09:40;16.97;;;11.77;;
17451;SDS011;8843;48.838;9.324;2023-03-01T15:15:30;15.77;;;11.30;;
17451;SDS011;8843;48.838;9.324;2023-03-01T15:18:03;17.97;;;12.80;;
17451;SDS011;8843;48.838;9.324;2023-03-01T15:20:34;15.27;;;11.30;;